Time;durP1;ratioP1;P1;durP2;ratioP2;P2;SDS_P1;SDS_P2;PMS_P1;PMS_P2;Temp;Humidity;BMP_temperature;BMP_pressure;BME280_temperature;BME280_humidity;BME280_pressure;Samples;Min_cycle;Max_cycle;Signal;HPM_P1;HPM_P2
2023/09/06 00:00:52;;;;;;;9.05;6.85;;;;;;;14.66;100.00;93478.97;5012082;28;20095;-76
2023/09/06 00:03:19;;;;;;;6.88;6.18;;;;;;;14.62;100.00;93470.09;5011385;28;20511;-76
2023/09/06 00:05:46;;;;;;;7.75;6.35;;;;;;;14.73;100.00;93481.44;5010864;28;20467;-76
2023/09/06 00:08:16;;;;;;;7.85;6.30;;;;;;;14.76;100.00;93472.47;5013529;28;20104;-76
2023/09/06 00:10:44;;;;;;;8.65;6.55;;;;;;;14.59;100.00;93455.06;5011686;28;20145;-76
2023/09/06 00:13:13;;;;;;;7.05;6.13;;;;;;;14.63;100.00;93468.31;5010426;28;20105;-76
2023/09/06 00:15:40;;;;;;;7.63;5.97;;;;;;;14.63;100.00;93469.09;5014186;28;20495;-76
2023/09/06 00:18:07;;;;;;;6.68;5.97;;;;;;;14.49;100.00;93447.09;5026636;28;20401;-75
2023/09/06 00:20:36;;;;;;;8.27;6.50;;;;;;;14.70;100.00;93466.38;5014026;28;20039;-75
2023/09/06 00:23:04;;;;;;;6.53;5.82;;;;;;;14.73;100.00;93465.94;5010536;28;20534;-75
2023/09/06 00:25:32;;;;;;;7.43;6.50;;;;;;;14.76;100.00;93470.66;5010776;28;20097;-76
2023/09/06 00:28:03;;;;;;;7.78;6.35;;;;;;;14.76;100.00;93477.66;5013201;28;20057;-76
2023/09/06 00:30:30;;;;;;;7.25;5.85;;;;;;;14.81;100.00;93473.34;5009999;28;20049;-77
2023/09/06 00:33:45;;;;;;;7.53;5.97;;;;;;;14.82;100.00;93481.91;5009117;28;20050;-76
2023/09/06 00:36:12;;;;;;;8.10;6.25;;;;;;;14.63;100.00;93470.91;4996959;28;20078;-76
2023/09/06 00:38:39;;;;;;;7.50;5.68;;;;;;;14.79;100.00;93477.97;5010600;28;20050;-76
2023/09/06 00:41:06;;;;;;;6.13;5.40;;;;;;;14.72;100.00;93469.50;5010513;28;20077;-76
2023/09/06 00:43:34;;;;;;;6.97;5.95;;;;;;;14.79;100.00;93461.66;5012165;28;20050;-75
2023/09/06 00:46:06;;;;;;;6.30;5.25;;;;;;;14.82;100.00;93467.16;5013314;28;20061;-75
2023/09/06 00:48:34;;;;;;;7.25;5.20;;;;;;;14.81;100.00;93459.63;5010531;28;20053;-76
2023/09/06 00:51:03;;;;;;;7.70;6.13;;;;;;;14.82;100.00;93459.41;5008924;28;20094;-76
2023/09/06 00:53:32;;;;;;;7.05;5.15;;;;;;;14.70;100.00;93441.31;5014064;28;20085;-75
2023/09/06 00:56:01;;;;;;;7.68;6.30;;;;;;;14.75;100.00;93445.81;5009832;28;20050;-75
2023/09/06 00:58:28;;;;;;;7.82;5.47;;;;;;;14.75;100.00;93445.03;5009324;28;20454;-75
2023/09/06 01:00:57;;;;;;;6.32;5.55;;;;;;;14.77;100.00;93430.09;5011459;28;20085;-75
2023/09/06 01:03:23;;;;;;;6.85;5.78;;;;;;;14.76;100.00;93438.88;5009804;28;20049;-75
2023/09/06 01:05:55;;;;;;;6.43;5.55;;;;;;;14.64;100.00;93420.75;5012316;28;20099;-75
2023/09/06 01:08:27;;;;;;;5.75;5.00;;;;;;;14.80;100.00;93434.78;5010157;28;20057;-75
2023/09/06 01:10:54;;;;;;;7.00;5.22;;;;;;;14.77;100.00;93441.19;5009900;28;20050;-76
2023/09/06 01:13:21;;;;;;;7.75;5.65;;;;;;;14.77;100.00;93435.25;5010000;28;20045;-76
2023/09/06 01:15:51;;;;;;;5.75;5.15;;;;;;;14.77;100.00;93440.44;5014849;28;20042;-76
2023/09/06 01:18:20;;;;;;;6.45;5.75;;;;;;;14.81;100.00;93433.75;5011171;28;20046;-75
2023/09/06 01:20:53;;;;;;;9.30;5.90;;;;;;;14.66;100.00;93423.88;5009633;28;20088;-76
2023/09/06 01:23:34;;;;;;;6.97;5.13;;;;;;;14.59;100.00;93410.31;5013508;28;20053;-76
2023/09/06 01:26:01;;;;;;;7.28;5.70;;;;;;;14.79;100.00;93434.00;5009648;28;20133;-76
2023/09/06 01:28:28;;;;;;;7.15;5.07;;;;;;;14.79;100.00;93444.34;5013701;28;20120;-76
2023/09/06 01:30:55;;;;;;;7.30;5.30;;;;;;;14.86;100.00;93436.44;5009329;28;20049;-76
2023/09/06 01:33:22;;;;;;;7.63;5.65;;;;;;;14.80;100.00;93445.13;5011103;28;20120;-75
2023/09/06 01:35:49;;;;;;;6.10;5.03;;;;;;;14.72;100.00;93433.31;5009519;28;20053;-75
2023/09/06 01:38:16;;;;;;;7.28;5.63;;;;;;;14.73;100.00;93444.44;5009161;28;20100;-77
2023/09/06 01:40:44;;;;;;;7.35;5.85;;;;;;;14.70;100.00;93427.59;5012860;28;20093;-75
2023/09/06 01:43:11;;;;;;;7.47;5.85;;;;;;;14.76;100.00;93433.69;5009081;28;20049;-76
2023/09/06 01:45:38;;;;;;;6.93;5.82;;;;;;;14.77;100.00;93437.84;5008436;28;20538;-76
2023/09/06 01:48:06;;;;;;;7.05;5.90;;;;;;;14.69;100.00;93434.56;5007659;28;20057;-74
2023/09/06 01:50:33;;;;;;;8.38;6.70;;;;;;;14.62;100.00;93431.31;5009117;28;20116;-75
2023/09/06 01:52:59;;;;;;;8.00;6.40;;;;;;;14.62;100.00;93427.97;5012392;28;20049;-74
2023/09/06 01:55:26;;;;;;;6.10;5.15;;;;;;;14.49;100.00;93416.84;5009328;28;20085;-75
2023/09/06 01:57:54;;;;;;;8.32;6.70;;;;;;;14.63;100.00;93432.13;5008425;28;20804;-75
2023/09/06 02:00:26;;;;;;;7.00;6.07;;;;;;;14.55;100.00;93413.34;5008717;28;20058;-77
2023/09/06 02:02:53;;;;;;;8.68;7.18;;;;;;;14.60;100.00;93432.56;5009172;28;20768;-75
2023/09/06 02:05:20;;;;;;;7.45;6.57;;;;;;;14.55;100.00;93418.53;5008074;28;20085;-75
2023/09/06 02:07:48;;;;;;;7.88;6.75;;;;;;;14.59;100.00;93428.41;5005921;28;20096;-75
2023/09/06 02:10:14;;;;;;;6.88;5.82;;;;;;;14.57;100.00;93426.06;5008009;28;20046;-76
2023/09/06 02:12:41;;;;;;;8.40;6.18;;;;;;;14.55;100.00;93423.69;5008417;28;20053;-75
2023/09/06 02:15:13;;;;;;;8.60;6.60;;;;;;;14.60;100.00;93419.63;5013356;28;20045;-75
2023/09/06 02:17:42;;;;;;;9.30;6.35;;;;;;;14.60;100.00;93432.56;5017015;28;20108;-75
2023/09/06 02:20:17;;;;;;;7.72;6.50;;;;;;;14.57;100.00;93423.47;5019119;28;20064;-75
2023/09/06 02:22:44;;;;;;;7.68;6.88;;;;;;;14.53;100.00;93433.47;5017230;28;20519;-76
2023/09/06 02:25:11;;;;;;;9.18;6.88;;;;;;;14.57;100.00;93431.22;5009773;28;20046;-76
2023/09/06 02:27:38;;;;;;;8.75;6.90;;;;;;;14.55;100.00;93443.59;5007760;28;20503;-76
2023/09/06 02:30:06;;;;;;;8.23;6.68;;;;;;;14.54;100.00;93436.88;5007921;28;20057;-75
2023/09/06 02:32:34;;;;;;;7.55;6.32;;;;;;;14.52;100.00;93441.47;5006166;28;20088;-76
2023/09/06 02:35:02;;;;;;;7.88;6.22;;;;;;;14.51;100.00;93438.09;5008859;28;20049;-74
2023/09/06 02:37:29;;;;;;;9.07;6.05;;;;;;;14.41;100.00;93425.75;5008161;28;20061;-75
2023/09/06 02:39:56;;;;;;;8.38;5.90;;;;;;;14.49;100.00;93440.13;5006600;28;20347;-75
2023/09/06 02:42:23;;;;;;;7.63;6.32;;;;;;;14.47;100.00;93434.41;5009435;28;20475;-75
2023/09/06 02:44:50;;;;;;;6.63;5.80;;;;;;;14.59;100.00;93441.34;5008040;28;20049;-75
2023/09/06 02:47:17;;;;;;;7.15;5.95;;;;;;;14.66;100.00;93426.47;5008297;28;20053;-74
2023/09/06 02:49:47;;;;;;;6.70;5.38;;;;;;;14.77;100.00;93437.84;5007373;28;20056;-75
2023/09/06 02:52:20;;;;;;;7.30;5.55;;;;;;;14.43;100.00;93387.56;5007232;28;20515;-75
2023/09/06 02:54:47;;;;;;;8.60;5.35;;;;;;;14.78;100.00;93439.41;5007877;28;20218;-76
2023/09/06 02:57:15;;;;;;;7.63;6.05;;;;;;;14.86;100.00;93435.69;5007224;28;20069;-75
2023/09/06 02:59:41;;;;;;;9.23;5.20;;;;;;;14.88;100.00;93431.84;5008303;28;20130;-75
2023/09/06 03:02:08;;;;;;;6.20;5.43;;;;;;;14.85;100.00;93429.72;5008012;28;20446;-75
2023/09/06 03:04:37;;;;;;;6.80;5.82;;;;;;;14.86;100.00;93426.09;5007878;28;20046;-75
2023/09/06 03:07:07;;;;;;;7.82;5.82;;;;;;;14.79;100.00;93428.03;5009625;28;20046;-75
2023/09/06 03:09:35;;;;;;;7.35;5.30;;;;;;;14.92;100.00;93403.72;5011416;28;20058;-76
2023/09/06 03:12:11;;;;;;;8.13;5.68;;;;;;;14.92;100.00;93420.03;5021791;28;20053;-74
2023/09/06 03:14:38;;;;;;;6.85;5.45;;;;;;;14.77;100.00;93438.59;5011099;28;20415;-74
2023/09/06 03:17:08;;;;;;;8.85;5.75;;;;;;;14.70;100.00;93420.63;5018622;28;20090;-75
2023/09/06 03:19:38;;;;;;;7.57;5.93;;;;;;;14.82;100.00;93427.59;5007243;28;20053;-75
2023/09/06 03:22:09;;;;;;;6.57;5.40;;;;;;;14.84;100.00;93433.31;5007976;28;20111;-76
2023/09/06 03:24:36;;;;;;;6.53;5.13;;;;;;;14.81;100.00;93450.06;5013013;28;20053;-77
2023/09/06 03:27:07;;;;;;;7.88;6.47;;;;;;;15.02;100.00;93439.31;5009345;28;20431;-76
2023/09/06 03:29:36;;;;;;;6.88;5.30;;;;;;;15.00;100.00;93447.31;5016229;28;20680;-75
2023/09/06 03:32:04;;;;;;;7.30;5.55;;;;;;;14.88;100.00;93433.63;5016056;28;20069;-76
2023/09/06 03:34:30;;;;;;;6.95;5.45;;;;;;;14.89;100.00;93430.81;5017889;28;20046;-75
2023/09/06 03:36:57;;;;;;;7.70;5.45;;;;;;;15.00;100.00;93441.38;5017583;28;20053;-75
2023/09/06 03:39:28;;;;;;;7.10;5.57;;;;;;;14.92;100.00;93419.22;5014818;28;20492;-76
2023/09/06 03:42:00;;;;;;;7.38;5.13;;;;;;;15.00;100.00;93431.78;5013684;28;20517;-76
2023/09/06 03:44:27;;;;;;;5.57;4.88;;;;;;;15.02;100.00;93434.94;5016388;28;20427;-77
2023/09/06 03:46:56;;;;;;;6.88;5.13;;;;;;;15.04;100.00;93439.88;5017481;28;20053;-76
2023/09/06 03:49:23;;;;;;;6.88;5.05;;;;;;;15.00;100.00;93418.84;5016218;28;20050;-76
2023/09/06 03:51:50;;;;;;;6.55;5.07;;;;;;;15.22;100.00;93442.28;5017103;28;20050;-76
2023/09/06 03:54:18;;;;;;;7.00;5.47;;;;;;;15.16;100.00;93455.34;5014471;28;20049;-76
2023/09/06 03:56:46;;;;;;;5.68;4.90;;;;;;;15.10;100.00;93446.72;5011680;28;20476;-78
2023/09/06 03:59:13;;;;;;;6.68;5.07;;;;;;;15.03;100.00;93457.19;5016218;28;20139;-77
2023/09/06 04:01:43;;;;;;;10.38;5.85;;;;;;;15.12;100.00;93441.28;5016373;28;20046;-79
2023/09/06 04:04:12;;;;;;;6.53;5.20;;;;;;;15.10;100.00;93447.50;5017947;28;20053;-75
2023/09/06 04:06:43;;;;;;;8.27;5.65;;;;;;;15.11;100.00;93466.41;5017350;28;20463;-76
2023/09/06 04:09:13;;;;;;;8.73;5.28;;;;;;;15.29;100.00;93456.88;5016082;28;20046;-76
2023/09/06 04:11:40;;;;;;;7.80;5.40;;;;;;;15.32;100.00;93448.66;5018222;28;20049;-76
2023/09/06 04:14:08;;;;;;;7.25;5.28;;;;;;;15.23;100.00;93466.34;5020655;28;20041;-75
2023/09/06 04:16:37;;;;;;;9.38;5.35;;;;;;;15.13;100.00;93466.19;5019519;28;20123;-75
2023/09/06 04:19:05;;;;;;;5.50;4.53;;;;;;;15.17;100.00;93460.28;5021131;28;20061;-75
2023/09/06 04:21:32;;;;;;;6.82;4.95;;;;;;;15.14;100.00;93463.34;5018902;28;20829;-75
2023/09/06 04:23:59;;;;;;;7.13;5.13;;;;;;;15.06;100.00;93453.38;5018269;28;20062;-75
2023/09/06 04:26:26;;;;;;;5.68;4.47;;;;;;;15.06;100.00;93445.59;5017081;28;20152;-76
2023/09/06 04:28:53;;;;;;;6.93;5.38;;;;;;;14.94;100.00;93420.56;5017298;28;20168;-74
2023/09/06 04:31:21;;;;;;;6.68;5.47;;;;;;;15.19;100.00;93444.53;5015073;28;20104;-75
2023/09/06 04:33:48;;;;;;;7.10;5.32;;;;;;;15.20;100.00;93453.88;5011247;28;20519;-75
2023/09/06 04:36:15;;;;;;;7.53;5.53;;;;;;;15.20;100.00;93449.50;5013192;28;21054;-75
2023/09/06 04:38:43;;;;;;;9.13;5.72;;;;;;;15.27;100.00;93458.91;5013145;28;21028;-75
2023/09/06 04:41:10;;;;;;;7.22;5.00;;;;;;;15.16;100.00;93460.53;5015931;28;20053;-76
2023/09/06 04:43:37;;;;;;;8.02;4.97;;;;;;;15.19;100.00;93462.66;5012573;28;20085;-76
2023/09/06 04:46:03;;;;;;;5.65;4.47;;;;;;;15.07;100.00;93444.59;5012161;28;20940;-76
2023/09/06 04:48:31;;;;;;;6.28;4.97;;;;;;;15.10;100.00;93452.66;5012576;28;20076;-76
2023/09/06 04:50:59;;;;;;;7.25;5.40;;;;;;;15.08;100.00;93448.75;5011397;28;20443;-77
2023/09/06 04:53:26;;;;;;;7.85;5.65;;;;;;;15.05;100.00;93444.03;5011284;28;20423;-77
2023/09/06 04:55:53;;;;;;;8.70;5.60;;;;;;;15.08;100.00;93457.28;5011317;28;20856;-78
2023/09/06 04:58:20;;;;;;;8.05;5.00;;;;;;;15.00;100.00;93434.38;5010589;28;20496;-77
2023/09/06 05:00:48;;;;;;;6.70;5.25;;;;;;;15.21;100.00;93453.66;5013404;28;20077;-76
2023/09/06 05:03:18;;;;;;;7.72;5.53;;;;;;;15.32;100.00;93464.19;5015149;28;20049;-76
2023/09/06 05:05:47;;;;;;;7.03;5.82;;;;;;;15.32;100.00;93453.81;5018882;28;20046;-77
2023/09/06 05:08:14;;;;;;;7.78;6.07;;;;;;;15.46;100.00;93456.91;5018317;28;20045;-76
2023/09/06 05:10:41;;;;;;;8.70;6.13;;;;;;;15.47;100.00;93448.88;5016220;28;20046;-76
2023/09/06 05:13:08;;;;;;;10.77;6.60;;;;;;;15.35;100.00;93432.63;5015306;28;20049;-77
2023/09/06 05:15:35;;;;;;;10.90;7.82;;;;;;;15.52;100.00;93465.53;5016784;28;20044;-76
2023/09/06 05:18:02;;;;;;;6.68;5.72;;;;;;;15.52;100.00;93468.91;5013357;28;20139;-76
2023/09/06 05:20:33;;;;;;;8.30;6.28;;;;;;;15.60;100.00;93467.75;5018633;28;20050;-76
2023/09/06 05:23:03;;;;;;;7.60;6.10;;;;;;;15.56;100.00;93458.88;5018150;28;20056;-76
2023/09/06 05:25:31;;;;;;;6.68;4.93;;;;;;;15.68;100.00;93475.13;5018492;28;20092;-76
2023/09/06 05:27:59;;;;;;;5.80;4.78;;;;;;;15.74;100.00;93473.41;5014571;28;20084;-76
2023/09/06 05:30:26;;;;;;;8.38;4.95;;;;;;;15.82;100.00;93477.38;5015995;28;20056;-76
2023/09/06 05:32:54;;;;;;;8.05;5.20;;;;;;;15.84;100.00;93470.94;5016463;28;20560;-76
2023/09/06 05:35:21;;;;;;;6.65;4.47;;;;;;;15.95;100.00;93487.47;5015778;28;20116;-77
2023/09/06 05:37:48;;;;;;;6.80;5.10;;;;;;;15.98;100.00;93475.88;5013719;28;20099;-76
2023/09/06 05:40:22;;;;;;;6.07;4.47;;;;;;;15.98;100.00;93496.59;5019614;28;20045;-77
2023/09/06 05:42:49;;;;;;;9.93;5.28;;;;;;;16.05;100.00;93494.63;5015009;28;20054;-76
2023/09/06 05:45:15;;;;;;;6.57;4.75;;;;;;;16.05;100.00;93489.44;5018607;28;20087;-76
2023/09/06 05:47:42;;;;;;;5.50;4.68;;;;;;;16.09;100.00;93497.50;5017329;28;20679;-76
2023/09/06 05:50:10;;;;;;;7.13;4.43;;;;;;;16.14;100.00;93495.78;5015923;28;20042;-76
2023/09/06 05:52:37;;;;;;;5.75;4.50;;;;;;;16.09;100.00;93487.16;5014873;28;20049;-75
2023/09/06 05:55:04;;;;;;;6.47;4.10;;;;;;;16.25;100.00;93495.94;5014567;28;20049;-76
2023/09/06 05:57:33;;;;;;;5.68;4.10;;;;;;;16.33;100.00;93498.13;5016391;28;20085;-76
2023/09/06 05:59:59;;;;;;;6.63;4.97;;;;;;;16.43;100.00;93519.00;5017978;28;20554;-76
2023/09/06 06:02:26;;;;;;;5.60;4.35;;;;;;;16.48;100.00;93507.91;5017165;28;20049;-76
2023/09/06 06:04:55;;;;;;;6.57;5.32;;;;;;;16.53;100.00;93502.78;5018949;28;20108;-76
2023/09/06 06:07:21;;;;;;;5.78;4.00;;;;;;;16.67;100.00;93510.25;5017073;28;20041;-76
2023/09/06 06:09:49;;;;;;;5.57;3.83;;;;;;;16.71;100.00;93506.13;5011446;28;20112;-75
2023/09/06 06:12:22;;;;;;;6.43;4.65;;;;;;;17.07;100.00;93531.75;5014984;28;20138;-75
2023/09/06 06:14:51;;;;;;;7.28;4.25;;;;;;;16.93;100.00;93534.69;5017654;28;20051;-76
2023/09/06 06:17:18;;;;;;;6.68;4.88;;;;;;;16.90;100.00;93518.81;5014355;28;20049;-76
2023/09/06 06:19:45;;;;;;;6.00;3.97;;;;;;;16.94;100.00;93520.69;5016173;28;20128;-77
2023/09/06 06:22:12;;;;;;;6.78;3.92;;;;;;;17.15;100.00;93530.56;5012245;28;20049;-77
2023/09/06 06:24:38;;;;;;;5.25;3.67;;;;;;;17.21;100.00;93525.19;5019123;28;20037;-77
2023/09/06 06:27:06;;;;;;;6.90;4.07;;;;;;;17.13;100.00;93537.81;5018828;28;20046;-78
2023/09/06 06:29:33;;;;;;;4.95;3.53;;;;;;;17.07;100.00;93550.72;5014138;28;20096;-76
2023/09/06 06:32:01;;;;;;;4.47;3.53;;;;;;;17.28;100.00;93539.78;5014959;28;20523;-77
2023/09/06 06:35:16;;;;;;;7.35;4.90;;;;;;;17.47;100.00;93546.22;5011343;28;20137;-77
2023/09/06 06:37:43;;;;;;;6.93;3.80;;;;;;;17.69;100.00;93563.56;5011328;28;20054;-77
2023/09/06 06:40:10;;;;;;;7.20;4.10;;;;;;;17.73;100.00;93571.69;5017059;28;20091;-77
2023/09/06 06:42:39;;;;;;;6.18;4.32;;;;;;;17.65;100.00;93570.28;5018810;28;20185;-78
2023/09/06 06:45:06;;;;;;;7.18;4.45;;;;;;;17.69;100.00;93568.00;5019222;28;20049;-77
2023/09/06 06:47:34;;;;;;;6.78;4.07;;;;;;;17.78;100.00;93566.53;5013429;28;20542;-77
2023/09/06 06:50:05;;;;;;;5.63;4.05;;;;;;;17.68;100.00;93566.44;5017629;28;20057;-77
2023/09/06 06:52:33;;;;;;;6.32;4.47;;;;;;;17.76;100.00;93555.59;5017823;28;20588;-77
2023/09/06 06:55:00;;;;;;;6.88;4.47;;;;;;;17.83;100.00;93561.34;5017143;28;20132;-77
2023/09/06 06:57:27;;;;;;;6.63;4.50;;;;;;;17.85;100.00;93558.53;5017611;28;20079;-77
2023/09/06 06:59:54;;;;;;;7.18;4.25;;;;;;;17.81;100.00;93560.06;5015943;28;20124;-77
2023/09/06 07:02:20;;;;;;;5.70;4.10;;;;;;;17.81;100.00;93565.25;5015055;28;20096;-77
2023/09/06 07:04:49;;;;;;;5.65;4.63;;;;;;;17.99;100.00;93570.09;5016575;28;20045;-78
2023/09/06 07:07:16;;;;;;;6.53;4.32;;;;;;;18.09;100.00;93573.84;5009743;28;20045;-79
2023/09/06 07:09:43;;;;;;;9.13;5.13;;;;;;;18.11;98.71;93572.56;5018547;28;20049;-77
2023/09/06 07:12:10;;;;;;;7.03;5.32;;;;;;;18.42;95.06;93569.38;5017106;28;20041;-77
2023/09/06 07:14:37;;;;;;;8.77;4.70;;;;;;;18.40;96.44;93574.06;5016123;28;20049;-77
2023/09/06 07:17:04;;;;;;;7.72;4.53;;;;;;;18.43;97.45;93576.19;5011971;28;20041;-77
2023/09/06 07:19:32;;;;;;;6.72;4.43;;;;;;;18.37;98.21;93572.75;5015951;28;20057;-77
2023/09/06 07:22:01;;;;;;;8.32;4.72;;;;;;;18.25;97.71;93579.94;5018886;28;20046;-76
2023/09/06 07:24:27;;;;;;;6.40;5.00;;;;;;;18.36;96.29;93576.38;5015995;28;20519;-77
2023/09/06 07:26:54;;;;;;;8.32;4.68;;;;;;;18.33;97.32;93558.66;5016452;28;20148;-79
2023/09/06 07:29:22;;;;;;;8.38;5.05;;;;;;;18.18;96.60;93551.53;5016892;28;20515;-78
2023/09/06 07:31:49;;;;;;;6.47;4.78;;;;;;;18.36;96.11;93565.97;5012530;28;20060;-78
2023/09/06 07:34:15;;;;;;;6.18;4.93;;;;;;;18.41;96.85;93566.03;5014080;28;20072;-77
2023/09/06 07:36:43;;;;;;;7.88;4.50;;;;;;;18.28;97.23;93564.63;5016449;28;20129;-77
2023/09/06 07:39:11;;;;;;;6.38;4.38;;;;;;;18.16;99.24;93553.63;5015560;28;20171;-77
2023/09/06 07:41:38;;;;;;;6.05;4.68;;;;;;;18.16;100.00;93559.59;5014662;28;20054;-77
2023/09/06 07:44:05;;;;;;;6.35;4.45;;;;;;;18.07;100.00;93550.69;5021579;28;20049;-76
2023/09/06 07:46:34;;;;;;;6.88;4.65;;;;;;;18.05;100.00;93559.75;5016571;28;20046;-76
2023/09/06 07:49:00;;;;;;;6.88;5.05;;;;;;;17.93;99.29;93539.09;5020431;28;20053;-76
2023/09/06 07:51:27;;;;;;;6.22;4.57;;;;;;;18.10;97.46;93529.38;5020547;28;20117;-76
2023/09/06 07:53:55;;;;;;;7.20;3.83;;;;;;;18.07;99.25;93532.50;5017633;28;20081;-77
2023/09/06 07:56:23;;;;;;;6.53;4.45;;;;;;;18.12;99.14;93529.16;5017227;28;20052;-77
2023/09/06 07:58:50;;;;;;;7.05;4.82;;;;;;;18.12;98.73;93529.16;5020597;28;20123;-76
2023/09/06 08:01:17;;;;;;;7.50;4.57;;;;;;;18.24;97.40;93528.97;5019660;28;20099;-76
2023/09/06 08:03:43;;;;;;;6.47;4.55;;;;;;;18.40;95.86;93541.06;5017194;28;20511;-77
2023/09/06 08:06:10;;;;;;;6.57;5.03;;;;;;;18.51;96.31;93554.13;5016980;28;20049;-79
2023/09/06 08:08:37;;;;;;;8.02;4.45;;;;;;;18.66;95.95;93556.03;5013910;28;20500;-79
2023/09/06 08:11:05;;;;;;;11.25;8.60;;;;;;;18.76;95.78;93555.31;5020333;28;20053;-80
2023/09/06 08:13:33;;;;;;;11.63;7.80;;;;;;;18.71;94.47;93561.28;5019441;28;20164;-80
2023/09/06 08:16:00;;;;;;;7.05;4.72;;;;;;;18.98;98.64;93560.34;5014311;28;20109;-79
2023/09/06 08:18:27;;;;;;;5.93;3.88;;;;;;;18.90;100.00;93582.47;5014622;28;20056;-80
2023/09/06 08:20:54;;;;;;;7.00;4.13;;;;;;;18.70;100.00;93581.28;5019515;28;20131;-80
2023/09/06 08:23:21;;;;;;;6.25;4.45;;;;;;;18.67;100.00;93568.00;5015275;28;20050;-79
2023/09/06 08:25:48;;;;;;;7.80;4.63;;;;;;;18.89;100.00;93577.50;5015070;28;20566;-80
2023/09/06 08:28:16;;;;;;;10.10;5.25;;;;;;;18.92;100.00;93563.97;5018117;28;20142;-77
2023/09/06 08:30:46;;;;;;;7.47;5.25;;;;;;;19.00;100.00;93563.50;5018801;28;20046;-78
2023/09/06 08:33:13;;;;;;;7.03;4.80;;;;;;;19.09;96.94;93569.81;5010386;28;20474;-78
2023/09/06 08:35:40;;;;;;;6.70;5.10;;;;;;;19.25;96.46;93541.22;5012141;28;20045;-78
2023/09/06 08:38:07;;;;;;;5.85;4.88;;;;;;;19.40;96.25;93553.53;5019385;28;20045;-79
2023/09/06 08:40:34;;;;;;;8.18;5.03;;;;;;;19.52;95.43;93568.16;5010976;28;20046;-79
2023/09/06 08:43:04;;;;;;;6.57;4.93;;;;;;;19.66;96.76;93563.22;5019609;28;20466;-80
2023/09/06 08:45:31;;;;;;;10.05;5.15;;;;;;;19.74;96.67;93570.53;5019633;28;20057;-79
2023/09/06 08:47:59;;;;;;;8.20;4.68;;;;;;;19.80;96.04;93587.75;5013521;28;20046;-79
2023/09/06 08:50:27;;;;;;;8.32;4.20;;;;;;;19.66;96.20;93584.84;5016846;28;20562;-79
2023/09/06 08:52:56;;;;;;;9.63;5.28;;;;;;;19.70;99.11;93564.25;5017601;28;20053;-79
2023/09/06 08:55:23;;;;;;;7.80;4.75;;;;;;;19.44;92.71;93585.81;5016943;28;20053;-79
2023/09/06 08:57:50;;;;;;;7.30;4.68;;;;;;;19.34;95.46;93585.78;5016630;28;20108;-80
2023/09/06 09:00:17;;;;;;;7.50;5.35;;;;;;;19.32;98.44;93574.84;5018822;28;20115;-77
2023/09/06 09:02:46;;;;;;;7.95;4.90;;;;;;;19.14;99.64;93553.44;5015090;28;20129;-78
2023/09/06 09:05:14;;;;;;;9.27;4.75;;;;;;;19.09;100.00;93556.00;5013962;28;20133;-79
2023/09/06 09:07:41;;;;;;;7.47;4.78;;;;;;;19.18;100.00;93554.50;5013368;28;20054;-78
2023/09/06 09:10:10;;;;;;;6.82;5.28;;;;;;;19.30;98.07;93566.50;5024541;28;20042;-79
2023/09/06 09:12:38;;;;;;;8.73;4.97;;;;;;;19.30;99.40;93549.06;5017075;28;20496;-78
2023/09/06 09:15:07;;;;;;;8.18;5.82;;;;;;;19.43;99.25;93560.03;5009637;28;20111;-79
2023/09/06 09:17:37;;;;;;;10.30;5.88;;;;;;;19.52;100.00;93540.25;5011720;28;20534;-79
2023/09/06 09:20:05;;;;;;;12.57;5.53;;;;;;;19.56;100.00;93562.16;5013514;28;20052;-80
2023/09/06 09:22:36;;;;;;;10.13;5.20;;;;;;;19.66;100.00;93560.63;5009543;28;20071;-80
2023/09/06 09:25:04;;;;;;;12.75;5.70;;;;;;;19.72;100.00;93554.38;5009109;28;20074;-79
2023/09/06 09:27:33;;;;;;;8.15;4.60;;;;;;;19.77;98.78;93567.44;5009173;28;20500;-79
2023/09/06 09:30:02;;;;;;;10.45;6.45;;;;;;;19.83;98.65;93561.19;5010386;28;20096;-79
2023/09/06 09:32:30;;;;;;;14.15;6.47;;;;;;;19.90;100.00;93577.34;5010853;28;20049;-79
2023/09/06 09:34:57;;;;;;;10.65;6.20;;;;;;;20.00;99.49;93581.03;5009605;28;20081;-79
2023/09/06 09:37:24;;;;;;;9.30;5.93;;;;;;;19.92;97.50;93564.06;5009513;28;20048;-78
2023/09/06 09:39:55;;;;;;;9.73;5.93;;;;;;;20.06;97.27;93587.03;5011426;28;20147;-78
2023/09/06 09:45:07;;;;;;;7.75;5.35;;;;;;;20.08;96.57;93585.72;5014115;28;20053;-78
2023/09/06 09:47:34;;;;;;;9.88;5.75;;;;;;;20.22;95.25;93586.00;5019452;28;20488;-78
2023/09/06 09:50:02;;;;;;;7.72;5.22;;;;;;;20.32;93.22;93597.47;5016480;28;20042;-78
2023/09/06 09:52:32;;;;;;;8.35;5.00;;;;;;;20.28;91.49;93566.69;5018681;28;20049;-79
2023/09/06 09:55:03;;;;;;;8.10;4.97;;;;;;;20.40;91.62;93584.69;5011927;28;20132;-79
2023/09/06 09:57:31;;;;;;;7.30;4.90;;;;;;;20.64;86.62;93599.03;5008691;28;20045;-79
2023/09/06 09:59:58;;;;;;;9.82;6.57;;;;;;;20.83;91.45;93591.44;5009153;28;20057;-79
2023/09/06 10:02:27;;;;;;;14.68;5.68;;;;;;;20.98;92.01;93593.25;5011249;28;20483;-80
2023/09/06 10:04:54;;;;;;;12.05;5.70;;;;;;;21.09;91.05;93594.00;5009745;28;20858;-78
2023/09/06 10:07:24;;;;;;;11.88;6.90;;;;;;;21.24;89.35;93593.16;5012740;28;20054;-79
2023/09/06 10:09:51;;;;;;;18.48;11.00;;;;;;;21.39;88.35;93597.56;5010050;28;20050;-79
2023/09/06 10:12:21;;;;;;;12.85;8.20;;;;;;;21.40;85.35;93598.34;5020347;28;20421;-79
2023/09/06 10:14:48;;;;;;;10.75;7.22;;;;;;;21.66;86.96;93595.63;5009633;28;20046;-79
2023/09/06 10:17:15;;;;;;;11.68;5.47;;;;;;;21.81;83.31;93592.16;5008589;28;20499;-80
2023/09/06 10:19:42;;;;;;;9.13;5.65;;;;;;;21.73;80.45;93599.53;5010580;28;20041;-78
2023/09/06 10:24:56;;;;;;;9.57;6.43;;;;;;;22.10;78.38;93596.69;5013055;28;20084;-79
2023/09/06 10:27:32;;;;;;;17.10;9.10;;;;;;;22.19;76.36;93595.06;5009991;28;20049;-79
2023/09/06 10:29:59;;;;;;;12.18;7.15;;;;;;;22.46;81.18;93588.56;5012639;28;20053;-80
2023/09/06 10:32:41;;;;;;;10.65;5.53;;;;;;;22.77;79.24;93585.69;5015443;28;20236;-80
2023/09/06 10:35:21;;;;;;;10.02;5.72;;;;;;;23.17;76.34;93584.75;5011338;28;20049;-80
2023/09/06 10:38:05;;;;;;;9.23;5.30;;;;;;;23.33;74.41;93582.78;5012210;28;20419;-80
2023/09/06 10:41:11;;;;;;;21.33;9.13;;;;;;;23.04;73.01;93584.38;5011316;28;20050;-80
2023/09/06 10:43:55;;;;;;;13.30;6.45;;;;;;;22.79;69.66;93580.19;5010486;28;20119;-80
2023/09/06 10:46:28;;;;;;;42.63;16.38;;;;;;;22.55;68.49;93583.53;5010183;28;20458;-81
2023/09/06 10:49:13;;;;;;;21.13;9.60;;;;;;;22.73;69.40;93568.97;5013136;28;20057;-79
2023/09/06 10:51:59;;;;;;;11.48;6.55;;;;;;;23.14;73.52;93556.50;5019682;28;20089;-80
2023/09/06 10:54:34;;;;;;;20.35;10.38;;;;;;;23.30;68.94;93551.84;5008118;28;20415;-80
2023/09/06 10:57:05;;;;;;;8.50;5.10;;;;;;;23.53;72.66;93552.91;5018767;28;20100;-79
2023/09/06 10:59:37;;;;;;;6.75;4.35;;;;;;;23.78;69.00;93569.34;5008457;28;20511;-81
2023/09/06 11:02:25;;;;;;;7.85;5.00;;;;;;;23.89;67.72;93562.13;5008750;28;20179;-80
2023/09/06 11:05:05;;;;;;;9.75;6.03;;;;;;;23.97;68.56;93540.47;5008831;28;20132;-80
2023/09/06 11:07:38;;;;;;;7.70;5.10;;;;;;;24.23;65.84;93553.25;5011121;28;20105;-79
2023/09/06 11:10:07;;;;;;;7.63;4.78;;;;;;;24.15;65.17;93546.78;5010366;28;20118;-78
2023/09/06 11:12:35;;;;;;;8.85;5.28;;;;;;;23.70;61.96;93567.38;5013216;28;20136;-78
2023/09/06 11:15:05;;;;;;;6.40;4.88;;;;;;;23.40;65.38;93551.75;5010634;28;20136;-79
2023/09/06 11:17:33;;;;;;;6.13;4.60;;;;;;;23.50;64.20;93545.59;5009388;28;20072;-79
2023/09/06 11:20:12;;;;;;;6.75;4.35;;;;;;;22.92;62.81;93560.41;5009118;28;20054;-80
2023/09/06 11:22:39;;;;;;;5.53;4.07;;;;;;;23.34;61.09;93545.78;5016959;28;20054;-81
2023/09/06 11:25:16;;;;;;;7.28;4.13;;;;;;;23.53;62.94;93547.66;5007215;28;20042;-80
2023/09/06 11:27:45;;;;;;;8.18;6.03;;;;;;;23.51;62.24;93549.00;5009261;28;20085;-80
2023/09/06 11:30:18;;;;;;;5.97;4.28;;;;;;;23.41;61.42;93532.34;5010881;28;20077;-80
2023/09/06 11:32:45;;;;;;;5.38;4.40;;;;;;;23.60;62.96;93508.75;5008407;28;20060;-79
2023/09/06 11:35:14;;;;;;;7.35;4.78;;;;;;;23.93;60.16;93523.75;5010031;28;20042;-80
2023/09/06 11:37:46;;;;;;;6.40;4.55;;;;;;;23.89;60.96;93507.78;5011334;28;20046;-80
2023/09/06 11:40:15;;;;;;;8.15;4.75;;;;;;;24.04;62.98;93508.63;5010144;28;20195;-80